Time;durP1;ratioP1;P1;durP2;ratioP2;P2;SDS_P1;SDS_P2;PMS_P1;PMS_P2;Temp;Humidity;BMP_temperature;BMP_pressure;BME280_temperature;BME280_humidity;BME280_pressure;Samples;Min_cycle;Max_cycle;Signal;HPM_P1;HPM_P2
2021/04/27 00:01:58;;;;;;;16.62;11.22;;;;;;;22.34;47.82;100383.84;1733029;81;21197;-63
2021/04/27 00:04:25;;;;;;;16.87;10.53;;;;;;;22.35;47.80;100381.88;1738285;81;21212;-63
2021/04/27 00:06:51;;;;;;;16.50;11.57;;;;;;;22.35;47.78;100386.86;1734315;81;21454;-63
2021/04/27 00:09:18;;;;;;;19.35;11.65;;;;;;;22.35;47.77;100383.27;1741987;81;21147;-63
2021/04/27 00:11:44;;;;;;;14.83;10.45;;;;;;;22.34;47.79;100364.44;1740412;81;21166;-62
2021/04/27 00:14:11;;;;;;;14.80;10.45;;;;;;;22.31;47.79;100364.55;1706162;83;21259;-63
2021/04/27 00:16:37;;;;;;;15.55;9.80;;;;;;;22.30;47.77;100369.86;1685115;84;21150;-63
2021/04/27 00:19:04;;;;;;;15.05;10.13;;;;;;;22.28;47.79;100361.63;1688025;84;21605;-62
2021/04/27 00:21:31;;;;;;;14.23;9.30;;;;;;;;;;1739177;81;21192;-62
2021/04/27 00:23:57;;;;;;;12.88;8.83;;;;;;;22.26;47.78;100355.63;1701032;83;21151;-63
2021/04/27 00:26:24;;;;;;;12.93;8.45;;;;;;;22.23;47.78;100357.13;1694326;83;21627;-62
2021/04/27 00:28:50;;;;;;;13.25;9.15;;;;;;;22.23;47.75;100356.31;1740083;81;21178;-62
2021/04/27 00:31:17;;;;;;;12.50;8.15;;;;;;;22.22;47.74;100361.05;1736038;81;21148;-63
2021/04/27 00:33:43;;;;;;;11.43;7.85;;;;;;;22.22;47.73;100368.55;1734362;81;21158;-62
2021/04/27 00:36:10;;;;;;;11.15;7.12;;;;;;;22.22;47.72;100358.27;1734519;81;21245;-63
2021/04/27 00:38:36;;;;;;;11.10;8.03;;;;;;;22.22;47.68;100351.34;1740475;81;21212;-63
2021/04/27 00:41:02;;;;;;;12.00;8.18;;;;;;;22.23;47.64;100359.91;1736858;81;21170;-62
2021/04/27 00:43:29;;;;;;;10.75;7.83;;;;;;;22.22;47.62;100358.27;1732756;81;21210;-63
2021/04/27 00:45:55;;;;;;;12.10;8.08;;;;;;;22.22;47.60;100370.75;1736147;81;21201;-62
2021/04/27 00:48:22;;;;;;;10.80;7.65;;;;;;;22.21;47.60;100364.95;1731394;81;21177;-62
2021/04/27 00:50:48;;;;;;;11.55;7.58;;;;;;;22.20;47.58;100378.57;1741359;81;21538;-63
2021/04/27 00:53:15;;;;;;;13.10;7.60;;;;;;;22.18;47.58;100375.34;1735391;81;21633;-63
2021/04/27 00:55:41;;;;;;;11.12;7.62;;;;;;;22.18;47.58;100378.69;1738006;81;21222;-62
2021/04/27 00:58:08;;;;;;;10.98;7.28;;;;;;;22.16;47.59;100379.02;1722048;81;21187;-63
2021/04/27 01:00:37;;;;;;;11.10;6.80;;;;;;;22.15;47.59;100383.52;1711884;82;21740;-62
2021/04/27 01:03:04;;;;;;;11.97;6.90;;;;;;;22.13;47.60;100381.08;1711955;82;21198;-63
2021/04/27 01:05:32;;;;;;;8.63;6.78;;;;;;;22.11;47.63;100373.67;1712899;82;21163;-63
2021/04/27 01:08:27;;;;;;;9.30;5.92;;;;;;;22.10;47.62;100370.69;1719157;82;21166;-62
2021/04/27 01:11:15;;;;;;;8.85;6.17;;;;;;;22.11;47.60;100376.44;1715490;82;21161;-63
2021/04/27 01:13:56;;;;;;;9.28;6.15;;;;;;;22.11;47.58;100374.23;1710097;82;21238;-62
2021/04/27 01:16:22;;;;;;;9.20;5.92;;;;;;;22.12;47.54;100368.94;1711542;82;21249;-62
2021/04/27 01:18:52;;;;;;;8.73;5.90;;;;;;;22.11;47.49;100370.08;1716013;82;21631;-62
2021/04/27 01:21:21;;;;;;;9.60;6.50;;;;;;;22.09;47.48;100373.21;1712544;82;21427;-62
2021/04/27 01:24:22;;;;;;;8.70;5.92;;;;;;;22.08;47.48;100374.35;1717560;82;21130;-63
2021/04/27 01:26:52;;;;;;;9.40;5.85;;;;;;;22.07;47.48;100378.27;1712804;82;21122;-62
2021/04/27 01:29:26;;;;;;;10.60;6.53;;;;;;;22.05;47.50;100381.15;1711483;82;21721;-62
2021/04/27 01:31:52;;;;;;;8.20;5.75;;;;;;;22.04;47.51;100378.13;1713726;82;21653;-63
2021/04/27 01:34:22;;;;;;;9.78;5.83;;;;;;;22.02;47.52;100377.67;1713753;82;21662;-62
2021/04/27 01:36:50;;;;;;;9.20;6.40;;;;;;;21.99;47.52;100376.37;1698342;82;21593;-62
2021/04/27 01:39:16;;;;;;;10.35;6.30;;;;;;;21.98;47.54;100372.58;1710392;82;21516;-62
2021/04/27 01:41:43;;;;;;;7.40;5.40;;;;;;;21.97;47.56;100370.38;1713783;82;22406;-63
2021/04/27 01:44:09;;;;;;;7.83;5.78;;;;;;;21.99;47.56;100371.41;1712792;82;21235;-63
2021/04/27 01:46:36;;;;;;;7.50;5.28;;;;;;;21.99;47.54;100370.83;1710144;82;21176;-63
2021/04/27 01:49:03;;;;;;;9.48;6.25;;;;;;;22.01;47.51;100370.51;1714315;82;21564;-62
2021/04/27 01:51:30;;;;;;;9.33;5.72;;;;;;;22.00;47.47;100366.92;1715531;83;21156;-63
2021/04/27 01:53:56;;;;;;;7.30;5.15;;;;;;;22.00;47.46;100365.53;1680642;83;21522;-62
2021/04/27 01:56:23;;;;;;;7.60;5.42;;;;;;;22.00;47.46;100361.38;1683530;84;21621;-62
2021/04/27 01:58:50;;;;;;;9.38;5.55;;;;;;;21.99;47.46;100359.75;1686039;84;21526;-62
2021/04/27 02:01:17;;;;;;;9.40;5.58;;;;;;;21.98;47.43;100359.51;1684522;84;21160;-61
2021/04/27 02:03:46;;;;;;;8.15;5.37;;;;;;;21.97;47.47;100352.94;1681051;84;21792;-61
2021/04/27 02:06:12;;;;;;;8.88;5.03;;;;;;;21.96;47.46;100362.39;1741083;81;21200;-60
2021/04/27 02:08:39;;;;;;;7.05;4.90;;;;;;;21.95;47.44;100351.06;1740463;81;21563;-61
2021/04/27 02:11:06;;;;;;;7.33;4.85;;;;;;;21.92;47.45;100353.95;1735768;81;21166;-61
2021/04/27 02:13:33;;;;;;;7.12;5.47;;;;;;;21.91;47.49;100346.75;1740879;81;21207;-61
2021/04/27 02:16:00;;;;;;;7.42;5.00;;;;;;;21.90;47.51;100348.49;1736793;81;21572;-61
2021/04/27 02:18:40;;;;;;;6.70;4.90;;;;;;;21.89;47.51;100342.14;1738531;81;21931;-60
2021/04/27 02:21:07;;;;;;;7.92;4.67;;;;;;;21.91;47.51;100339.83;1737706;81;21542;-61
2021/04/27 02:23:33;;;;;;;7.12;4.80;;;;;;;21.91;47.47;100339.83;1740864;81;21056;-61
2021/04/27 02:26:00;;;;;;;6.28;4.53;;;;;;;21.91;47.44;100334.86;1736698;81;21263;-60
2021/04/27 02:28:26;;;;;;;6.62;4.72;;;;;;;21.91;47.46;100331.52;1728411;81;21168;-61
2021/04/27 02:30:53;;;;;;;7.42;4.92;;;;;;;21.90;47.45;100334.64;1732700;81;21372;-60
2021/04/27 02:33:21;;;;;;;6.40;4.50;;;;;;;21.89;47.45;100329.67;1688171;84;21567;-60
2021/04/27 02:35:49;;;;;;;8.50;4.95;;;;;;;21.88;47.44;100321.94;1737805;81;21478;-61
2021/04/27 02:38:20;;;;;;;6.22;4.30;;;;;;;21.86;47.43;100322.84;1735895;81;21601;-61
2021/04/27 02:40:52;;;;;;;6.62;5.00;;;;;;;21.86;47.43;100324.79;1735695;81;21187;-62
2021/04/27 02:43:19;;;;;;;7.25;4.90;;;;;;;21.83;47.47;100333.21;1733958;81;21540;-61
2021/04/27 02:45:46;;;;;;;5.97;4.50;;;;;;;21.82;47.44;100327.43;1739596;81;21184;-62
2021/04/27 02:48:16;;;;;;;6.40;4.22;;;;;;;21.81;47.49;100329.95;1728981;81;21166;-61
2021/04/27 02:50:46;;;;;;;6.20;4.50;;;;;;;21.80;47.49;100318.66;1742075;81;21221;-61
2021/04/27 02:53:14;;;;;;;6.75;4.03;;;;;;;21.80;47.51;100322.81;1739895;81;21138;-62
2021/04/27 02:55:40;;;;;;;6.70;4.37;;;;;;;21.80;47.47;100317.85;1738425;81;22170;-62
2021/04/27 02:58:08;;;;;;;8.83;4.70;;;;;;;21.82;47.48;100316.35;1730050;81;21215;-62
2021/04/27 03:00:35;;;;;;;7.75;4.42;;;;;;;21.82;47.46;100308.05;1718434;81;21161;-62
2021/04/27 03:03:01;;;;;;;7.05;4.50;;;;;;;21.82;47.45;100312.77;1662024;84;21221;-61
2021/04/27 03:05:28;;;;;;;6.40;4.25;;;;;;;21.81;47.46;100305.03;1680536;84;21222;-62
2021/04/27 03:07:54;;;;;;;5.75;3.92;;;;;;;21.80;47.46;100313.70;1712904;82;21587;-62
2021/04/27 03:10:21;;;;;;;6.47;4.25;;;;;;;21.79;47.51;100317.61;1687996;84;21549;-62
2021/04/27 03:12:47;;;;;;;5.37;3.72;;;;;;;21.78;47.54;100320.95;1680255;84;21277;-62
2021/04/27 03:15:15;;;;;;;5.65;4.00;;;;;;;21.78;47.58;100317.36;1679899;84;21588;-62
2021/04/27 03:17:41;;;;;;;4.65;3.65;;;;;;;21.77;47.65;100322.66;1712921;82;21218;-61
2021/04/27 03:20:10;;;;;;;5.42;3.50;;;;;;;21.76;47.68;100318.29;1716133;81;21205;-61
2021/04/27 03:22:37;;;;;;;6.12;3.90;;;;;;;21.73;47.76;100321.14;1711396;82;21192;-61
2021/04/27 03:25:05;;;;;;;5.58;4.17;;;;;;;21.72;47.82;100325.08;1679438;84;21020;-61
2021/04/27 03:27:32;;;;;;;5.42;3.50;;;;;;;21.74;47.89;100326.11;1711011;82;21772;-62
2021/04/27 03:29:59;;;;;;;4.97;3.52;;;;;;;21.74;47.89;100321.38;1714541;82;21532;-62
2021/04/27 03:32:25;;;;;;;4.17;2.92;;;;;;;21.76;47.90;100312.75;1722458;82;22125;-61
2021/04/27 03:34:52;;;;;;;5.67;3.52;;;;;;;21.76;47.90;100325.21;1675158;84;21464;-62
2021/04/27 03:37:19;;;;;;;6.55;3.40;;;;;;;21.76;47.90;100322.44;1710836;82;22568;-62
2021/04/27 03:39:46;;;;;;;5.55;3.47;;;;;;;21.75;47.94;100321.63;1719366;82;21222;-61
2021/04/27 03:42:12;;;;;;;4.12;3.15;;;;;;;21.74;47.96;100321.38;1721235;82;21621;-61
2021/04/27 03:44:39;;;;;;;4.42;3.50;;;;;;;21.73;47.98;100327.25;1682918;84;21626;-62
2021/04/27 03:47:05;;;;;;;4.97;3.80;;;;;;;21.72;48.05;100338.92;1659446;85;21230;-62
2021/04/27 03:49:32;;;;;;;4.62;3.17;;;;;;;21.71;48.11;100342.02;1687332;84;21218;-60
2021/04/27 03:51:58;;;;;;;7.72;3.90;;;;;;;21.72;48.14;100342.27;1673019;85;21578;-62
2021/04/27 03:54:25;;;;;;;5.80;3.17;;;;;;;21.71;48.20;100340.06;1689507;83;21569;-61
2021/04/27 03:56:51;;;;;;;5.80;2.80;;;;;;;21.71;48.25;100333.14;1685635;84;21222;-61
2021/04/27 03:59:18;;;;;;;4.40;2.80;;;;;;;21.72;48.33;100339.49;1682050;84;21170;-62
2021/04/27 04:01:44;;;;;;;5.80;3.45;;;;;;;21.73;48.39;100342.48;1682718;84;21179;-62
2021/04/27 04:04:11;;;;;;;9.48;3.67;;;;;;;21.74;48.43;100341.34;1681535;84;21238;-61
2021/04/27 04:06:37;;;;;;;4.03;2.62;;;;;;;21.74;48.44;100351.84;1670169;84;21158;-61
2021/04/27 04:09:06;;;;;;;4.08;2.60;;;;;;;21.76;48.45;100357.87;1675677;84;21586;-62
2021/04/27 04:11:33;;;;;;;3.72;2.42;;;;;;;21.79;48.40;100362.73;1678334;84;21570;-62
2021/04/27 04:14:00;;;;;;;3.95;2.58;;;;;;;21.82;48.35;100363.43;1665499;85;21201;-62
2021/04/27 04:16:28;;;;;;;4.28;2.47;;;;;;;21.84;48.29;100365.30;1673860;84;21158;-62
2021/04/27 04:18:54;;;;;;;4.00;2.60;;;;;;;21.87;48.25;100352.16;1665899;85;21219;-62
2021/04/27 04:21:23;;;;;;;3.30;1.95;;;;;;;21.91;48.21;100359.78;1708417;83;21221;-61
2021/04/27 04:23:51;;;;;;;3.60;2.35;;;;;;;21.92;48.21;100352.56;1663166;84;21593;-61
2021/04/27 04:26:18;;;;;;;4.25;2.55;;;;;;;21.94;48.23;100350.86;1678068;84;21622;-61
2021/04/27 04:28:44;;;;;;;4.25;2.37;;;;;;;21.98;48.23;100351.80;1677539;84;21996;-62
2021/04/27 04:31:10;;;;;;;3.75;2.55;;;;;;;22.00;48.23;100349.48;1672122;84;21214;-61
2021/04/27 04:33:37;;;;;;;4.28;2.55;;;;;;;22.02;48.24;100361.88;1708950;83;21256;-61
2021/04/27 04:36:05;;;;;;;4.85;2.27;;;;;;;22.04;48.25;100356.78;1707306;83;21206;-62
2021/04/27 04:38:31;;;;;;;4.20;2.15;;;;;;;22.09;48.27;100354.39;1670163;85;21556;-60
2021/04/27 04:40:58;;;;;;;5.22;2.10;;;;;;;22.13;48.27;100360.88;1710615;83;21245;-62
2021/04/27 04:43:25;;;;;;;3.35;2.20;;;;;;;22.16;48.25;100362.39;1701686;83;21514;-61
2021/04/27 04:45:51;;;;;;;4.70;2.70;;;;;;;22.20;48.23;100362.52;1669489;85;21212;-61
2021/04/27 04:48:17;;;;;;;4.37;2.67;;;;;;;22.22;48.20;100366.59;1703374;83;21248;-61
2021/04/27 04:50:44;;;;;;;3.52;2.33;;;;;;;22.24;48.18;100357.34;1701246;83;21201;-61
2021/04/27 04:53:11;;;;;;;4.35;2.50;;;;;;;22.26;48.18;100356.45;1672902;85;21321;-61
2021/04/27 04:55:37;;;;;;;4.70;2.00;;;;;;;22.29;48.16;100357.72;1706953;83;21124;-60
2021/04/27 04:58:05;;;;;;;5.83;3.05;;;;;;;22.30;48.17;100356.00;1702966;82;21255;-62
2021/04/27 05:00:32;;;;;;;4.50;2.75;;;;;;;22.32;48.15;100366.16;1711476;82;21189;-61
2021/04/27 05:02:58;;;;;;;4.37;2.42;;;;;;;22.33;48.16;100364.20;1712673;82;21527;-61
2021/04/27 05:05:26;;;;;;;4.22;2.27;;;;;;;22.35;48.16;100371.61;1707004;82;21238;-61
2021/04/27 05:08:20;;;;;;;3.80;2.10;;;;;;;22.35;48.16;100373.00;1719892;82;21239;-61
2021/04/27 05:10:21;;;;;;;4.05;2.15;;;;;;;22.37;48.16;100377.61;1718685;82;21205;-62
2021/04/27 05:12:47;;;;;;;4.62;2.08;;;;;;;22.39;48.16;100375.89;1706168;82;21242;-62
2021/04/27 05:15:14;;;;;;;3.80;2.02;;;;;;;22.41;48.14;100377.16;1707873;82;21265;-61
2021/04/27 05:17:40;;;;;;;3.52;2.33;;;;;;;22.43;48.15;100375.45;1708659;82;21258;-62
2021/04/27 05:20:07;;;;;;;3.20;2.22;;;;;;;22.47;48.15;100383.32;1709319;82;21224;-61
2021/04/27 05:22:34;;;;;;;4.78;2.37;;;;;;;22.50;48.13;100390.95;1675046;84;21425;-61
2021/04/27 05:25:00;;;;;;;4.42;2.25;;;;;;;22.52;48.09;100399.17;1702855;82;21241;-61
2021/04/27 05:27:26;;;;;;;5.60;2.30;;;;;;;22.53;48.08;100398.00;1711891;82;21228;-61
2021/04/27 05:29:53;;;;;;;3.47;2.08;;;;;;;22.56;48.05;100399.30;1727365;82;21258;-62
2021/04/27 05:32:20;;;;;;;3.87;1.92;;;;;;;22.57;48.04;100398.16;1672545;84;21261;-62
2021/04/27 05:34:46;;;;;;;4.42;1.90;;;;;;;22.57;48.04;100407.29;1671400;84;21265;-62
2021/04/27 05:37:13;;;;;;;3.15;2.22;;;;;;;22.58;48.05;100405.30;1714136;82;21250;-62
2021/04/27 05:39:39;;;;;;;5.33;2.60;;;;;;;22.57;48.05;100397.59;1717592;82;21209;-62
2021/04/27 05:42:06;;;;;;;4.03;2.00;;;;;;;22.58;48.06;100395.59;1717837;82;22037;-62
2021/04/27 05:44:33;;;;;;;5.10;2.40;;;;;;;22.57;48.08;100392.61;1676677;84;21225;-61
2021/04/27 05:46:59;;;;;;;2.47;1.82;;;;;;;22.57;48.08;100385.68;1712998;82;21223;-62
2021/04/27 05:49:25;;;;;;;3.80;1.98;;;;;;;22.57;48.09;100394.00;1706605;82;21264;-62
2021/04/27 05:51:52;;;;;;;3.95;2.00;;;;;;;22.57;48.08;100392.04;1657114;85;21243;-62
2021/04/27 05:54:18;;;;;;;3.58;2.17;;;;;;;22.59;48.11;100390.30;1679368;84;21265;-61
2021/04/27 05:56:45;;;;;;;3.80;2.17;;;;;;;22.59;48.11;100393.88;1688355;84;21231;-62
2021/04/27 05:59:11;;;;;;;4.03;2.10;;;;;;;22.59;48.08;100389.72;1691982;84;21233;-61
2021/04/27 06:01:38;;;;;;;2.87;1.92;;;;;;;22.62;48.08;100394.58;1699538;84;21544;-61
2021/04/27 06:04:05;;;;;;;2.70;1.92;;;;;;;22.60;48.07;100382.22;1688030;84;21651;-61
2021/04/27 06:06:35;;;;;;;3.30;1.70;;;;;;;22.61;48.08;100386.05;1745957;81;21216;-61
2021/04/27 06:09:04;;;;;;;3.45;2.17;;;;;;;22.59;48.08;100384.75;1735599;81;21231;-62
2021/04/27 06:11:31;;;;;;;2.83;1.92;;;;;;;22.58;48.07;100385.89;1721736;81;21416;-61
2021/04/27 06:13:58;;;;;;;3.77;2.02;;;;;;;22.57;48.09;100385.11;1734109;81;21500;-61
2021/04/27 06:16:24;;;;;;;5.40;2.58;;;;;;;22.54;48.09;100383.00;1723660;81;21191;-61
2021/04/27 06:18:51;;;;;;;3.22;2.02;;;;;;;22.53;48.10;100374.44;1738402;81;21266;-61
2021/04/27 06:21:18;;;;;;;3.87;2.12;;;;;;;22.51;48.12;100375.37;1736548;81;21229;-61
2021/04/27 06:23:44;;;;;;;3.12;1.80;;;;;;;22.49;48.14;100374.88;1742603;81;21238;-61
2021/04/27 06:26:11;;;;;;;3.98;2.20;;;;;;;22.49;48.17;100378.26;1729059;81;21235;-61
2021/04/27 06:28:37;;;;;;;3.87;2.00;;;;;;;22.47;48.18;100373.61;1731140;81;21229;-62
2021/04/27 06:31:03;;;;;;;2.95;2.10;;;;;;;22.46;48.22;100374.76;1734556;81;21565;-61
2021/04/27 06:33:30;;;;;;;4.05;2.27;;;;;;;22.47;48.22;100375.00;1730206;81;21219;-61
2021/04/27 06:35:57;;;;;;;2.90;1.67;;;;;;;22.47;48.21;100377.77;1734775;81;21237;-62
2021/04/27 06:38:23;;;;;;;2.83;2.17;;;;;;;22.48;48.23;100379.41;1726024;81;21258;-62
2021/04/27 06:40:51;;;;;;;2.90;2.00;;;;;;;22.47;48.19;100368.89;1732567;81;21201;-61
2021/04/27 06:43:18;;;;;;;2.87;2.00;;;;;;;22.48;48.19;100371.91;1743237;81;22201;-61
2021/04/27 06:45:44;;;;;;;3.85;2.37;;;;;;;22.47;48.19;100370.84;1729395;81;21588;-61
2021/04/27 06:48:11;;;;;;;3.10;2.35;;;;;;;22.47;48.20;100370.84;1742604;81;21229;-62
2021/04/27 06:50:38;;;;;;;4.30;2.50;;;;;;;22.46;48.21;100375.58;1741175;81;21189;-62
2021/04/27 06:53:05;;;;;;;3.52;2.25;;;;;;;22.45;48.22;100373.95;1727163;81;21274;-61
2021/04/27 06:55:32;;;;;;;3.50;2.65;;;;;;;22.43;48.27;100383.20;1737016;81;21652;-61
2021/04/27 06:58:08;;;;;;;5.58;2.50;;;;;;;22.42;48.32;100383.52;1726256;81;21230;-62
2021/04/27 07:00:35;;;;;;;4.00;2.40;;;;;;;22.40;48.37;100380.30;1714204;81;21256;-62
2021/04/27 07:03:01;;;;;;;5.03;2.80;;;;;;;22.38;48.40;100384.78;1703623;82;21225;-62
2021/04/27 07:05:28;;;;;;;3.52;2.58;;;;;;;22.37;48.47;100380.95;1668994;84;21278;-61
2021/04/27 07:07:55;;;;;;;4.20;2.80;;;;;;;22.37;48.48;100387.31;1712285;82;21169;-61
2021/04/27 07:10:22;;;;;;;4.90;2.65;;;;;;;22.37;48.50;100391.47;1709086;82;21241;-61
2021/04/27 07:12:48;;;;;;;3.45;2.35;;;;;;;22.38;48.51;100388.94;1712726;82;22229;-62
2021/04/27 07:15:15;;;;;;;4.47;2.62;;;;;;;22.39;48.50;100386.41;1675021;84;21664;-61
2021/04/27 07:17:42;;;;;;;3.58;2.50;;;;;;;22.40;48.47;100385.27;1711510;82;22325;-61
2021/04/27 07:20:10;;;;;;;3.83;2.40;;;;;;;22.41;48.48;100395.18;1695120;82;21664;-61
2021/04/27 07:22:37;;;;;;;3.80;2.33;;;;;;;22.40;48.45;100403.28;1722676;82;21218;-61
2021/04/27 07:25:05;;;;;;;3.50;2.17;;;;;;;22.41;48.47;100412.38;1679212;84;21540;-61
2021/04/27 07:27:31;;;;;;;3.70;2.58;;;;;;;22.41;48.49;100411.00;1715162;82;21218;-61
2021/04/27 07:29:58;;;;;;;3.62;2.52;;;;;;;22.39;48.51;100407.77;1718715;82;21197;-61
2021/04/27 07:32:25;;;;;;;4.50;2.98;;;;;;;22.38;48.54;100410.30;1718808;82;21246;-61
2021/04/27 07:34:51;;;;;;;3.75;2.58;;;;;;;22.37;48.58;100405.33;1674703;84;21502;-61
2021/04/27 07:37:18;;;;;;;3.50;2.40;;;;;;;22.36;48.59;100413.43;1621289;84;21228;-61
2021/04/27 07:39:45;;;;;;;4.17;2.67;;;;;;;22.35;48.62;100411.80;1668542;84;21243;-61
2021/04/27 07:42:11;;;;;;;3.35;2.60;;;;;;;22.35;48.64;100411.80;1709626;82;22097;-62
2021/04/27 07:44:38;;;;;;;3.33;2.50;;;;;;;22.34;48.67;100410.17;1727733;82;22298;-61
2021/04/27 07:47:05;;;;;;;3.33;2.30;;;;;;;22.34;48.67;100415.71;1725284;82;21182;-61
2021/04/27 07:49:32;;;;;;;3.60;2.30;;;;;;;22.34;48.69;100410.17;1678907;84;21199;-61
2021/04/27 07:51:58;;;;;;;2.65;1.90;;;;;;;22.38;48.65;100415.27;1712470;82;21230;-61
2021/04/27 07:54:25;;;;;;;3.45;2.02;;;;;;;22.42;48.59;100410.67;1711762;82;21218;-62
2021/04/27 07:56:51;;;;;;;4.03;2.37;;;;;;;22.47;48.54;100410.47;1701685;82;21187;-62
2021/04/27 07:59:17;;;;;;;3.40;2.30;;;;;;;22.51;48.49;100407.25;1722941;81;21150;-62
2021/04/27 08:01:44;;;;;;;2.72;1.98;;;;;;;22.56;48.42;100413.98;1732627;81;21268;-61
2021/04/27 08:04:11;;;;;;;3.77;2.22;;;;;;;22.59;48.38;100417.45;1745282;81;21190;-61
2021/04/27 08:06:37;;;;;;;3.77;2.42;;;;;;;22.63;48.35;100414.23;1736028;81;21538;-61
2021/04/27 08:09:04;;;;;;;3.47;2.33;;;;;;;22.66;48.32;100416.91;1737247;81;21631;-62
2021/04/27 08:11:31;;;;;;;3.75;2.45;;;;;;;22.69;48.27;100420.41;1734140;81;21243;-62
2021/04/27 08:13:58;;;;;;;2.75;2.10;;;;;;;22.72;48.26;100418.34;1686143;83;21224;-61
2021/04/27 08:16:25;;;;;;;4.37;2.47;;;;;;;22.73;48.25;100418.58;1687114;84;21215;-62
2021/04/27 08:18:52;;;;;;;4.53;2.77;;;;;;;22.74;48.23;100426.53;1689450;84;21209;-62
2021/04/27 08:21:19;;;;;;;3.27;2.15;;;;;;;22.76;48.23;100426.20;1680887;84;21218;-62
2021/04/27 08:23:45;;;;;;;3.17;2.37;;;;;;;22.78;48.23;100432.81;1673007;84;21159;-62
2021/04/27 08:26:12;;;;;;;3.80;2.30;;;;;;;22.80;48.20;100427.72;1688161;84;21590;-62
2021/04/27 08:28:40;;;;;;;3.65;2.40;;;;;;;22.82;48.20;100426.81;1686305;84;21605;-61
2021/04/27 08:31:06;;;;;;;3.67;2.50;;;;;;;22.84;48.19;100434.20;1735483;81;21177;-61
2021/04/27 08:33:33;;;;;;;3.12;2.05;;;;;;;22.87;48.16;100433.54;1727709;81;21270;-61
2021/04/27 08:35:59;;;;;;;3.45;2.30;;;;;;;22.91;48.15;100431.70;1733698;81;21627;-61
2021/04/27 08:38:25;;;;;;;3.60;2.37;;;;;;;22.91;48.12;100431.13;1741544;81;21146;-62
2021/04/27 08:40:54;;;;;;;2.77;2.20;;;;;;;22.94;48.10;100433.78;1731519;81;21171;-62
2021/04/27 08:43:20;;;;;;;3.40;2.12;;;;;;;22.94;48.08;100433.21;1735825;81;21250;-62
2021/04/27 08:45:47;;;;;;;3.00;2.22;;;;;;;22.96;48.04;100430.08;1743013;81;21272;-61
2021/04/27 08:48:14;;;;;;;3.52;2.42;;;;;;;22.94;48.04;100422.11;1739521;81;21241;-62
2021/04/27 08:50:42;;;;;;;2.95;2.20;;;;;;;22.94;48.04;100426.84;1731172;81;21374;-62
2021/04/27 08:53:09;;;;;;;4.28;2.60;;;;;;;22.95;48.04;100427.09;1742084;81;21907;-62
2021/04/27 08:55:35;;;;;;;3.47;2.30;;;;;;;22.93;48.05;100421.88;1732518;81;21201;-62
2021/04/27 08:58:09;;;;;;;3.40;2.33;;;;;;;22.94;48.05;100416.56;1730946;81;21196;-62
2021/04/27 09:00:36;;;;;;;3.35;2.22;;;;;;;22.92;48.07;100413.31;1722572;81;21225;-61
2021/04/27 09:03:05;;;;;;;2.85;1.98;;;;;;;22.93;48.05;100416.33;1727607;81;21599;-62
2021/04/27 09:05:33;;;;;;;2.98;2.20;;;;;;;22.93;48.05;100412.16;1724711;81;21171;-61
2021/04/27 09:08:00;;;;;;;3.58;2.30;;;;;;;22.92;48.05;100407.77;1727448;81;21162;-62
2021/04/27 09:10:36;;;;;;;2.92;2.15;;;;;;;22.94;48.04;100408.81;1729027;81;21175;-61
2021/04/27 09:13:17;;;;;;;3.15;2.10;;;;;;;22.95;48.03;100418.77;1720289;81;21149;-62
2021/04/27 09:15:53;;;;;;;2.75;2.05;;;;;;;22.95;48.01;100420.97;1748718;81;21581;-62
2021/04/27 09:18:32;;;;;;;3.15;2.20;;;;;;;22.96;48.02;100419.80;1727079;81;21147;-61
2021/04/27 09:21:07;;;;;;;3.47;2.20;;;;;;;22.97;48.00;100420.61;1738193;81;21193;-61
2021/04/27 09:23:36;;;;;;;4.00;2.17;;;;;;;22.97;48.00;100418.65;1732582;81;21198;-61
2021/04/27 09:26:18;;;;;;;3.50;2.45;;;;;;;22.98;47.97;100418.08;1724934;81;21225;-61
2021/04/27 09:28:51;;;;;;;3.55;2.58;;;;;;;22.98;47.96;100423.63;1731949;81;23653;-62
2021/04/27 09:31:33;;;;;;;3.58;2.47;;;;;;;22.97;47.94;100423.37;1734004;81;21637;-62
2021/04/27 09:34:30;;;;;;;3.15;2.20;;;;;;;22.97;47.95;100424.77;1731397;81;21531;-62
2021/04/27 09:37:04;;;;;;;4.40;2.27;;;;;;;22.95;47.94;100437.62;1730579;81;21242;-63
2021/04/27 09:39:43;;;;;;;4.60;2.40;;;;;;;22.92;47.93;100438.28;1733759;81;21225;-62
2021/04/27 09:42:21;;;;;;;3.12;2.10;;;;;;;22.93;47.95;100441.30;1726527;81;21659;-62
2021/04/27 09:44:51;;;;;;;3.05;2.17;;;;;;;22.91;47.96;100443.61;1709171;81;21535;-63
2021/04/27 09:47:25;;;;;;;2.55;1.52;;;;;;;22.93;47.96;100435.75;1731363;81;21582;-62
2021/04/27 09:50:06;;;;;;;3.37;2.10;;;;;;;22.95;47.96;100427.91;1728789;81;21199;-62
2021/04/27 09:52:42;;;;;;;2.87;1.90;;;;;;;22.97;47.94;100430.31;1740047;81;21166;-62
2021/04/27 09:55:18;;;;;;;4.20;2.30;;;;;;;22.96;47.94;100422.56;1703451;83;21399;-61
2021/04/27 09:57:54;;;;;;;4.20;2.45;;;;;;;22.97;47.93;100428.92;1683114;84;21188;-62
2021/04/27 10:00:58;;;;;;;3.40;2.40;;;;;;;22.96;47.91;100418.41;1681044;84;21556;-63
2021/04/27 10:03:25;;;;;;;3.05;2.20;;;;;;;22.97;47.93;100421.99;1623847;87;21611;-62
2021/04/27 10:05:52;;;;;;;3.45;2.37;;;;;;;22.97;47.92;100423.37;1622994;87;21185;-62
2021/04/27 10:08:18;;;;;;;3.20;2.40;;;;;;;22.97;47.92;100426.97;1562635;86;21612;-62
2021/04/27 10:10:45;;;;;;;3.17;2.27;;;;;;;22.96;47.89;100418.41;1625082;86;21213;-63
2021/04/27 10:13:11;;;;;;;3.17;2.37;;;;;;;22.96;47.89;100418.41;1618644;86;21256;-63
2021/04/27 10:15:38;;;;;;;4.55;2.58;;;;;;;22.97;47.89;100423.37;1621931;86;21203;-63
2021/04/27 10:18:08;;;;;;;4.35;2.35;;;;;;;22.95;47.91;100418.77;1622506;86;21188;-62
2021/04/27 10:20:34;;;;;;;3.05;2.25;;;;;;;22.95;47.92;100417.38;1622202;86;21234;-63
2021/04/27 10:23:07;;;;;;;4.33;2.65;;;;;;;22.95;47.94;100412.64;1622784;86;21230;-62
2021/04/27 10:25:55;;;;;;;2.80;2.00;;;;;;;22.95;47.92;100420.16;1623666;86;21172;-62
2021/04/27 10:28:21;;;;;;;3.27;2.08;;;;;;;22.96;47.91;100418.41;1625048;86;21242;-63
2021/04/27 10:30:48;;;;;;;3.70;2.05;;;;;;;22.96;47.90;100414.24;1622994;86;21208;-64
2021/04/27 10:33:19;;;;;;;3.77;2.70;;;;;;;22.97;47.92;100403.96;1623037;87;21220;-62
2021/04/27 10:36:11;;;;;;;3.58;2.70;;;;;;;22.97;47.90;100408.12;1621970;86;21270;-62
2021/04/27 10:38:47;;;;;;;3.85;2.27;;;;;;;22.95;47.89;100400.73;1622813;87;21201;-62
2021/04/27 10:41:16;;;;;;;4.92;2.33;;;;;;;22.91;47.91;100407.55;1628226;85;21336;-63
2021/04/27 10:43:46;;;;;;;3.70;2.35;;;;;;;22.88;47.92;100410.98;1632885;87;21113;-61
2021/04/27 10:46:35;;;;;;;4.00;2.47;;;;;;;22.86;47.95;100407.77;1656121;85;21197;-62
2021/04/27 10:49:09;;;;;;;4.72;2.65;;;;;;;22.84;47.98;100401.73;1653334;85;21215;-63
2021/04/27 10:51:41;;;;;;;3.52;2.70;;;;;;;22.83;48.03;100409.03;1652111;85;22370;-62
2021/04/27 10:54:21;;;;;;;2.72;2.10;;;;;;;22.79;48.08;100403.94;1653344;85;21596;-62
2021/04/27 10:57:11;;;;;;;4.03;2.52;;;;;;;22.76;48.12;100407.61;1653330;85;21216;-62
2021/04/27 10:59:56;;;;;;;2.42;2.15;;;;;;;22.74;48.18;100405.73;1653577;85;21318;-62
2021/04/27 11:02:29;;;;;;;4.17;2.47;;;;;;;22.72;48.23;100404.47;1652378;85;21586;-62
2021/04/27 11:05:03;;;;;;;2.55;1.98;;;;;;;22.71;48.25;100407.81;1652805;85;21175;-62
2021/04/27 11:07:31;;;;;;;3.50;2.33;;;;;;;22.70;48.25;100402.63;1646852;85;21228;-62
2021/04/27 11:10:06;;;;;;;3.15;2.10;;;;;;;22.69;48.27;100408.75;1653501;85;21572;-61
2021/04/27 11:12:41;;;;;;;2.55;2.12;;;;;;;22.69;48.27;100410.70;1655173;85;22160;-62
2021/04/27 11:15:10;;;;;;;3.00;2.17;;;;;;;22.66;48.28;100412.15;1655815;85;21228;-61
2021/04/27 11:18:16;;;;;;;3.15;2.37;;;;;;;22.65;48.33;100414.71;1653197;85;21227;-62
2021/04/27 11:21:12;;;;;;;3.92;2.95;;;;;;;22.65;48.36;100413.90;1650299;85;21466;-62
2021/04/27 11:26:38;;;;;;;2.80;2.12;;;;;;;22.66;48.41;100410.77;1838317;76;22718;-62
2021/04/27 11:29:12;;;;;;;3.45;2.60;;;;;;;22.58;48.46;100407.50;1811153;77;21167;-62
2021/04/27 11:32:05;;;;;;;3.40;2.47;;;;;;;22.57;48.49;100408.67;1806600;77;21570;-62
2021/04/27 11:35:12;;;;;;;3.15;2.33;;;;;;;22.55;48.53;100404.03;1796418;77;21054;-61
2021/04/27 11:37:47;;;;;;;3.27;2.52;;;;;;;22.55;48.56;100402.64;1707380;81;21142;-61